<?xml version="1.0" encoding="UTF-8" standalone="no" ?>
<gpx xmlns="http://www.topografix.com/GPX/1/1" xmlns:xsi="http://www.w3.org/2001/XMLSchema-instance" xsi:schemaLocation="http://www.topografix.com/GPX/1/1 http://www.topografix.com/GPX/1/1/gpx.xsd" version="1.1" creator="VisuGPX - https://www.visugpx.com">
  <metadata>
    <name>maison</name>
  </metadata>
  <trk>
    <name><![CDATA[maison_1]]></name>
    <trkseg>
      <trkpt lat="45.19702" lon="5.73402">
        <ele>214.1</ele>
        <time>2021-06-05T08:23:04.000Z</time>
      </trkpt>
      <trkpt lat="45.197" lon="5.73398">
        <ele>213.7</ele>
        <time>2021-06-05T08:23:04.227Z</time>
      </trkpt>
      <trkpt lat="45.19711" lon="5.7339">
        <ele>213.1</ele>
        <time>2021-06-05T08:23:05.030Z</time>
      </trkpt>
      <trkpt lat="45.19712" lon="5.73389">
        <ele>213.1</ele>
        <time>2021-06-05T08:23:05.067Z</time>
      </trkpt>
      <trkpt lat="45.1972" lon="5.73376">
        <ele>211.9</ele>
        <time>2021-06-05T08:23:05.806Z</time>
      </trkpt>
      <trkpt lat="45.19722" lon="5.73372">
        <ele>211.5</ele>
        <time>2021-06-05T08:23:06.008Z</time>
      </trkpt>
      <trkpt lat="45.19723" lon="5.73368">
        <ele>211.2</ele>
        <time>2021-06-05T08:23:06.177Z</time>
      </trkpt>
      <trkpt lat="45.19726" lon="5.73359">
        <ele>210.4</ele>
        <time>2021-06-05T08:23:06.587Z</time>
      </trkpt>
      <trkpt lat="45.1973" lon="5.73342">
        <ele>208.8</ele>
        <time>2021-06-05T08:23:07.341Z</time>
      </trkpt>
      <trkpt lat="45.19739" lon="5.7331">
        <ele>209</ele>
        <time>2021-06-05T08:23:09.517Z</time>
      </trkpt>
      <trkpt lat="45.19748" lon="5.73277">
        <ele>210.7</ele>
        <time>2021-06-05T08:23:13.662Z</time>
      </trkpt>
      <trkpt lat="45.19759" lon="5.73244">
        <ele>213.2</ele>
        <time>2021-06-05T08:23:19.058Z</time>
      </trkpt>
      <trkpt lat="45.19755" lon="5.73241">
        <ele>213.2</ele>
        <time>2021-06-05T08:23:19.454Z</time>
      </trkpt>
      <trkpt lat="45.19759" lon="5.73244">
        <ele>213.2</ele>
        <time>2021-06-05T08:23:19.850Z</time>
      </trkpt>
      <trkpt lat="45.19769" lon="5.73219">
        <ele>216.8</ele>
        <time>2021-06-05T08:23:26.110Z</time>
      </trkpt>
      <trkpt lat="45.19774" lon="5.73192">
        <ele>220.8</ele>
        <time>2021-06-05T08:23:32.406Z</time>
      </trkpt>
      <trkpt lat="45.19774" lon="5.73181">
        <ele>222.3</ele>
        <time>2021-06-05T08:23:34.975Z</time>
      </trkpt>
      <trkpt lat="45.19783" lon="5.73179">
        <ele>223.5</ele>
        <time>2021-06-05T08:23:37.808Z</time>
      </trkpt>
      <trkpt lat="45.19774" lon="5.73181">
        <ele>222.3</ele>
        <time>2021-06-05T08:23:38.334Z</time>
      </trkpt>
      <trkpt lat="45.19773" lon="5.73175">
        <ele>223</ele>
        <time>2021-06-05T08:23:39.669Z</time>
      </trkpt>
      <trkpt lat="45.19774" lon="5.73169">
        <ele>223.9</ele>
        <time>2021-06-05T08:23:41.083Z</time>
      </trkpt>
      <trkpt lat="45.19779" lon="5.73148">
        <ele>228</ele>
        <time>2021-06-05T08:23:46.023Z</time>
      </trkpt>
      <trkpt lat="45.19782" lon="5.7314">
        <ele>229.9</ele>
        <time>2021-06-05T08:23:47.981Z</time>
      </trkpt>
      <trkpt lat="45.19785" lon="5.73135">
        <ele>231.4</ele>
        <time>2021-06-05T08:23:49.498Z</time>
      </trkpt>
      <trkpt lat="45.19789" lon="5.73131">
        <ele>232.9</ele>
        <time>2021-06-05T08:23:50.984Z</time>
      </trkpt>
      <trkpt lat="45.19793" lon="5.7313">
        <ele>234.1</ele>
        <time>2021-06-05T08:23:52.387Z</time>
      </trkpt>
      <trkpt lat="45.19803" lon="5.73129">
        <ele>236.4</ele>
        <time>2021-06-05T08:23:55.680Z</time>
      </trkpt>
      <trkpt lat="45.19807" lon="5.73131">
        <ele>236.9</ele>
        <time>2021-06-05T08:23:56.791Z</time>
      </trkpt>
    </trkseg>
  </trk>
</gpx>